sensor_id;sensor_type;location;lat;lon;timestamp;P1;durP1;ratioP1;P2;durP2;ratioP2
85160;SDS011;75526;43.726;4.346;2024-03-06T00:01:38;2.95;;;1.10;;
85160;SDS011;75526;43.726;4.346;2024-03-06T00:04:04;2.33;;;0.90;;
85160;SDS011;75526;43.726;4.346;2024-03-06T00:06:30;3.00;;;1.00;;
85160;SDS011;75526;43.726;4.346;2024-03-06T00:08:56;2.05;;;0.82;;
85160;SDS011;75526;43.726;4.346;2024-03-06T00:11:22;2.17;;;0.90;;
85160;SDS011;75526;43.726;4.346;2024-03-06T00:13:48;2.20;;;1.00;;
85160;SDS011;75526;43.726;4.346;2024-03-06T00:16:14;2.10;;;0.90;;
85160;SDS011;75526;43.726;4.346;2024-03-06T00:18:40;2.40;;;0.90;;
85160;SDS011;75526;43.726;4.346;2024-03-06T00:21:07;3.33;;;1.05;;
85160;SDS011;75526;43.726;4.346;2024-03-06T00:23:34;2.47;;;0.80;;
85160;SDS011;75526;43.726;4.346;2024-03-06T00:26:03;2.33;;;0.73;;
85160;SDS011;75526;43.726;4.346;2024-03-06T00:28:29;2.63;;;0.70;;
85160;SDS011;75526;43.726;4.346;2024-03-06T00:30:56;2.60;;;0.80;;
85160;SDS011;75526;43.726;4.346;2024-03-06T00:33:22;1.90;;;0.70;;
85160;SDS011;75526;43.726;4.346;2024-03-06T00:35:49;2.08;;;0.80;;
85160;SDS011;75526;43.726;4.346;2024-03-06T00:38:15;2.00;;;0.70;;
85160;SDS011;75526;43.726;4.346;2024-03-06T00:40:41;2.23;;;0.60;;
85160;SDS011;75526;43.726;4.346;2024-03-06T00:43:07;2.17;;;0.80;;
85160;SDS011;75526;43.726;4.346;2024-03-06T00:45:33;2.00;;;0.77;;
85160;SDS011;75526;43.726;4.346;2024-03-06T00:47:59;2.13;;;0.75;;
85160;SDS011;75526;43.726;4.346;2024-03-06T00:50:25;2.03;;;0.80;;
85160;SDS011;75526;43.726;4.346;2024-03-06T00:52:51;2.43;;;0.70;;
85160;SDS011;75526;43.726;4.346;2024-03-06T00:55:17;2.65;;;0.60;;
85160;SDS011;75526;43.726;4.346;2024-03-06T00:57:44;2.10;;;0.70;;
85160;SDS011;75526;43.726;4.346;2024-03-06T01:00:10;1.77;;;0.63;;
85160;SDS011;75526;43.726;4.346;2024-03-06T01:02:39;2.08;;;0.80;;
85160;SDS011;75526;43.726;4.346;2024-03-06T01:05:06;2.27;;;0.70;;
85160;SDS011;75526;43.726;4.346;2024-03-06T01:07:32;2.65;;;0.80;;
85160;SDS011;75526;43.726;4.346;2024-03-06T01:09:59;2.75;;;0.90;;
85160;SDS011;75526;43.726;4.346;2024-03-06T01:12:28;2.72;;;0.80;;
85160;SDS011;75526;43.726;4.346;2024-03-06T01:14:55;2.80;;;1.00;;
85160;SDS011;75526;43.726;4.346;2024-03-06T01:17:21;3.30;;;0.80;;
85160;SDS011;75526;43.726;4.346;2024-03-06T01:19:47;2.42;;;0.80;;
85160;SDS011;75526;43.726;4.346;2024-03-06T01:22:13;2.25;;;0.70;;
85160;SDS011;75526;43.726;4.346;2024-03-06T01:24:39;2.13;;;0.60;;
85160;SDS011;75526;43.726;4.346;2024-03-06T01:27:05;2.08;;;0.60;;
85160;SDS011;75526;43.726;4.346;2024-03-06T01:29:32;2.10;;;0.60;;
85160;SDS011;75526;43.726;4.346;2024-03-06T01:31:58;2.30;;;0.77;;
85160;SDS011;75526;43.726;4.346;2024-03-06T01:34:24;2.20;;;0.77;;
85160;SDS011;75526;43.726;4.346;2024-03-06T01:36:51;4.38;;;0.93;;
85160;SDS011;75526;43.726;4.346;2024-03-06T01:39:17;3.97;;;1.25;;
85160;SDS011;75526;43.726;4.346;2024-03-06T01:41:47;4.70;;;1.20;;
85160;SDS011;75526;43.726;4.346;2024-03-06T01:44:16;3.22;;;1.00;;
85160;SDS011;75526;43.726;4.346;2024-03-06T01:46:43;3.30;;;0.90;;
85160;SDS011;75526;43.726;4.346;2024-03-06T01:49:09;3.13;;;0.70;;
85160;SDS011;75526;43.726;4.346;2024-03-06T01:51:36;3.30;;;0.80;;
85160;SDS011;75526;43.726;4.346;2024-03-06T01:54:02;2.73;;;0.70;;
85160;SDS011;75526;43.726;4.346;2024-03-06T01:56:40;2.50;;;0.70;;
85160;SDS011;75526;43.726;4.346;2024-03-06T01:59:10;2.35;;;0.70;;
85160;SDS011;75526;43.726;4.346;2024-03-06T02:01:36;2.65;;;0.60;;
85160;SDS011;75526;43.726;4.346;2024-03-06T02:04:02;2.35;;;0.68;;
85160;SDS011;75526;43.726;4.346;2024-03-06T02:06:29;2.40;;;0.50;;
85160;SDS011;75526;43.726;4.346;2024-03-06T02:08:55;2.08;;;0.60;;
85160;SDS011;75526;43.726;4.346;2024-03-06T02:11:21;2.83;;;0.65;;
85160;SDS011;75526;43.726;4.346;2024-03-06T02:13:49;2.50;;;0.80;;
85160;SDS011;75526;43.726;4.346;2024-03-06T02:16:15;2.00;;;0.70;;
85160;SDS011;75526;43.726;4.346;2024-03-06T02:18:54;2.17;;;0.70;;
85160;SDS011;75526;43.726;4.346;2024-03-06T02:21:21;2.63;;;0.65;;
85160;SDS011;75526;43.726;4.346;2024-03-06T02:23:48;1.77;;;0.60;;
85160;SDS011;75526;43.726;4.346;2024-03-06T02:26:16;2.22;;;0.50;;
85160;SDS011;75526;43.726;4.346;2024-03-06T02:28:48;2.17;;;0.70;;
85160;SDS011;75526;43.726;4.346;2024-03-06T02:31:15;3.07;;;0.57;;
85160;SDS011;75526;43.726;4.346;2024-03-06T02:33:42;1.77;;;0.50;;
85160;SDS011;75526;43.726;4.346;2024-03-06T02:36:08;1.55;;;0.50;;
85160;SDS011;75526;43.726;4.346;2024-03-06T02:38:34;3.13;;;0.63;;
85160;SDS011;75526;43.726;4.346;2024-03-06T02:41:01;1.88;;;0.65;;
85160;SDS011;75526;43.726;4.346;2024-03-06T02:43:27;2.50;;;0.50;;
85160;SDS011;75526;43.726;4.346;2024-03-06T02:45:53;2.30;;;0.60;;
85160;SDS011;75526;43.726;4.346;2024-03-06T02:48:19;1.85;;;0.50;;
85160;SDS011;75526;43.726;4.346;2024-03-06T02:50:45;2.17;;;0.60;;
85160;SDS011;75526;43.726;4.346;2024-03-06T02:53:11;2.60;;;0.68;;
85160;SDS011;75526;43.726;4.346;2024-03-06T02:55:37;2.17;;;0.50;;
85160;SDS011;75526;43.726;4.346;2024-03-06T02:58:03;2.08;;;0.60;;
85160;SDS011;75526;43.726;4.346;2024-03-06T03:00:30;1.67;;;0.52;;
85160;SDS011;75526;43.726;4.346;2024-03-06T03:02:56;2.42;;;0.40;;
85160;SDS011;75526;43.726;4.346;2024-03-06T03:05:22;2.22;;;0.50;;
85160;SDS011;75526;43.726;4.346;2024-03-06T03:07:49;1.20;;;0.40;;
85160;SDS011;75526;43.726;4.346;2024-03-06T03:10:15;2.08;;;0.50;;
85160;SDS011;75526;43.726;4.346;2024-03-06T03:12:41;2.92;;;0.60;;
85160;SDS011;75526;43.726;4.346;2024-03-06T03:15:07;2.00;;;0.50;;
85160;SDS011;75526;43.726;4.346;2024-03-06T03:17:33;2.78;;;0.60;;
85160;SDS011;75526;43.726;4.346;2024-03-06T03:20:00;1.73;;;0.53;;
85160;SDS011;75526;43.726;4.346;2024-03-06T03:22:30;1.80;;;0.70;;
85160;SDS011;75526;43.726;4.346;2024-03-06T03:24:57;1.80;;;0.60;;
85160;SDS011;75526;43.726;4.346;2024-03-06T03:27:23;1.88;;;0.50;;
85160;SDS011;75526;43.726;4.346;2024-03-06T03:29:49;2.22;;;0.60;;
85160;SDS011;75526;43.726;4.346;2024-03-06T03:32:15;2.03;;;0.50;;
85160;SDS011;75526;43.726;4.346;2024-03-06T03:34:41;2.05;;;0.60;;
85160;SDS011;75526;43.726;4.346;2024-03-06T03:37:07;3.50;;;0.60;;
85160;SDS011;75526;43.726;4.346;2024-03-06T03:39:34;2.92;;;0.50;;
85160;SDS011;75526;43.726;4.346;2024-03-06T03:42:00;1.65;;;0.68;;
85160;SDS011;75526;43.726;4.346;2024-03-06T03:44:26;1.60;;;0.47;;
85160;SDS011;75526;43.726;4.346;2024-03-06T03:46:52;1.70;;;0.50;;
85160;SDS011;75526;43.726;4.346;2024-03-06T03:49:18;1.58;;;0.50;;
85160;SDS011;75526;43.726;4.346;2024-03-06T03:51:44;1.95;;;0.60;;
85160;SDS011;75526;43.726;4.346;2024-03-06T03:54:10;2.00;;;0.60;;
85160;SDS011;75526;43.726;4.346;2024-03-06T03:56:36;1.23;;;0.40;;
85160;SDS011;75526;43.726;4.346;2024-03-06T03:59:02;1.70;;;0.60;;
85160;SDS011;75526;43.726;4.346;2024-03-06T04:01:28;2.40;;;0.70;;
85160;SDS011;75526;43.726;4.346;2024-03-06T04:03:54;2.25;;;0.77;;
85160;SDS011;75526;43.726;4.346;2024-03-06T04:06:20;2.42;;;0.63;;
85160;SDS011;75526;43.726;4.346;2024-03-06T04:08:46;2.10;;;0.57;;
85160;SDS011;75526;43.726;4.346;2024-03-06T04:11:13;2.22;;;0.60;;
85160;SDS011;75526;43.726;4.346;2024-03-06T04:13:39;1.70;;;0.60;;
85160;SDS011;75526;43.726;4.346;2024-03-06T04:16:05;2.70;;;0.60;;
85160;SDS011;75526;43.726;4.346;2024-03-06T04:18:32;1.40;;;0.50;;
85160;SDS011;75526;43.726;4.346;2024-03-06T04:21:07;1.47;;;0.47;;
85160;SDS011;75526;43.726;4.346;2024-03-06T04:23:34;1.90;;;0.60;;
85160;SDS011;75526;43.726;4.346;2024-03-06T04:26:00;3.28;;;0.60;;
85160;SDS011;75526;43.726;4.346;2024-03-06T04:28:27;1.55;;;0.50;;
85160;SDS011;75526;43.726;4.346;2024-03-06T04:30:53;1.20;;;0.40;;
85160;SDS011;75526;43.726;4.346;2024-03-06T04:33:19;1.83;;;0.60;;
85160;SDS011;75526;43.726;4.346;2024-03-06T04:35:45;2.35;;;0.40;;
85160;SDS011;75526;43.726;4.346;2024-03-06T04:38:11;2.53;;;0.70;;
85160;SDS011;75526;43.726;4.346;2024-03-06T04:40:37;2.50;;;0.70;;
85160;SDS011;75526;43.726;4.346;2024-03-06T04:43:03;1.63;;;0.65;;
85160;SDS011;75526;43.726;4.346;2024-03-06T04:45:29;2.83;;;0.60;;
85160;SDS011;75526;43.726;4.346;2024-03-06T04:47:55;2.55;;;0.63;;
85160;SDS011;75526;43.726;4.346;2024-03-06T04:50:21;2.30;;;0.60;;
85160;SDS011;75526;43.726;4.346;2024-03-06T04:52:47;2.75;;;0.70;;
85160;SDS011;75526;43.726;4.346;2024-03-06T04:55:13;2.75;;;0.60;;
85160;SDS011;75526;43.726;4.346;2024-03-06T04:57:42;1.60;;;0.50;;
85160;SDS011;75526;43.726;4.346;2024-03-06T05:00:09;2.42;;;0.60;;
85160;SDS011;75526;43.726;4.346;2024-03-06T05:02:35;1.98;;;0.70;;
85160;SDS011;75526;43.726;4.346;2024-03-06T05:05:02;2.45;;;0.50;;
85160;SDS011;75526;43.726;4.346;2024-03-06T05:07:28;2.15;;;0.75;;
85160;SDS011;75526;43.726;4.346;2024-03-06T05:09:55;3.27;;;0.50;;
85160;SDS011;75526;43.726;4.346;2024-03-06T05:12:22;2.95;;;0.70;;
85160;SDS011;75526;43.726;4.346;2024-03-06T05:14:48;2.20;;;0.68;;
85160;SDS011;75526;43.726;4.346;2024-03-06T05:17:14;2.00;;;0.60;;
85160;SDS011;75526;43.726;4.346;2024-03-06T05:19:40;3.05;;;0.70;;
85160;SDS011;75526;43.726;4.346;2024-03-06T05:22:07;2.37;;;0.50;;
85160;SDS011;75526;43.726;4.346;2024-03-06T05:24:33;2.85;;;1.00;;
85160;SDS011;75526;43.726;4.346;2024-03-06T05:26:59;2.60;;;0.88;;
85160;SDS011;75526;43.726;4.346;2024-03-06T05:29:25;2.65;;;1.00;;
85160;SDS011;75526;43.726;4.346;2024-03-06T05:31:51;4.70;;;1.30;;
85160;SDS011;75526;43.726;4.346;2024-03-06T05:34:17;3.50;;;1.40;;
85160;SDS011;75526;43.726;4.346;2024-03-06T05:36:43;4.00;;;1.50;;
85160;SDS011;75526;43.726;4.346;2024-03-06T05:39:09;3.92;;;1.55;;
85160;SDS011;75526;43.726;4.346;2024-03-06T05:41:38;3.75;;;1.42;;
85160;SDS011;75526;43.726;4.346;2024-03-06T05:44:07;3.20;;;1.50;;
85160;SDS011;75526;43.726;4.346;2024-03-06T05:46:33;3.37;;;1.50;;
85160;SDS011;75526;43.726;4.346;2024-03-06T05:48:59;3.38;;;1.30;;
85160;SDS011;75526;43.726;4.346;2024-03-06T05:51:26;3.13;;;1.10;;
85160;SDS011;75526;43.726;4.346;2024-03-06T05:53:52;2.53;;;1.10;;
85160;SDS011;75526;43.726;4.346;2024-03-06T05:56:18;3.28;;;1.25;;
85160;SDS011;75526;43.726;4.346;2024-03-06T05:58:44;3.67;;;1.20;;
85160;SDS011;75526;43.726;4.346;2024-03-06T06:01:12;3.33;;;1.20;;
85160;SDS011;75526;43.726;4.346;2024-03-06T06:03:38;2.67;;;1.10;;
85160;SDS011;75526;43.726;4.346;2024-03-06T06:06:04;3.20;;;1.10;;
85160;SDS011;75526;43.726;4.346;2024-03-06T06:08:30;6.57;;;2.65;;
85160;SDS011;75526;43.726;4.346;2024-03-06T06:10:56;11.23;;;5.73;;
85160;SDS011;75526;43.726;4.346;2024-03-06T06:13:22;9.48;;;5.88;;
85160;SDS011;75526;43.726;4.346;2024-03-06T06:15:48;11.93;;;6.50;;
85160;SDS011;75526;43.726;4.346;2024-03-06T06:18:14;8.95;;;5.40;;
85160;SDS011;75526;43.726;4.346;2024-03-06T06:20:41;10.95;;;5.82;;
85160;SDS011;75526;43.726;4.346;2024-03-06T06:23:07;7.93;;;4.40;;
85160;SDS011;75526;43.726;4.346;2024-03-06T06:25:33;6.15;;;3.53;;
85160;SDS011;75526;43.726;4.346;2024-03-06T06:28:00;6.25;;;2.90;;
85160;SDS011;75526;43.726;4.346;2024-03-06T06:30:26;3.97;;;2.20;;
85160;SDS011;75526;43.726;4.346;2024-03-06T06:32:52;7.43;;;3.30;;
85160;SDS011;75526;43.726;4.346;2024-03-06T06:35:18;20.53;;;5.80;;
85160;SDS011;75526;43.726;4.346;2024-03-06T06:37:44;39.10;;;10.77;;
85160;SDS011;75526;43.726;4.346;2024-03-06T06:40:11;36.58;;;11.30;;
85160;SDS011;75526;43.726;4.346;2024-03-06T06:42:43;23.63;;;7.15;;
85160;SDS011;75526;43.726;4.346;2024-03-06T06:45:09;15.90;;;5.32;;
85160;SDS011;75526;43.726;4.346;2024-03-06T06:47:35;9.63;;;3.80;;
85160;SDS011;75526;43.726;4.346;2024-03-06T06:50:01;12.30;;;5.28;;
85160;SDS011;75526;43.726;4.346;2024-03-06T06:52:30;18.55;;;10.68;;
85160;SDS011;75526;43.726;4.346;2024-03-06T06:54:58;18.95;;;10.35;;
85160;SDS011;75526;43.726;4.346;2024-03-06T06:57:24;8.85;;;4.63;;
85160;SDS011;75526;43.726;4.346;2024-03-06T06:59:51;7.77;;;4.50;;
85160;SDS011;75526;43.726;4.346;2024-03-06T07:02:17;8.43;;;4.57;;
85160;SDS011;75526;43.726;4.346;2024-03-06T07:04:43;6.68;;;4.00;;
85160;SDS011;75526;43.726;4.346;2024-03-06T07:07:09;5.68;;;2.90;;
85160;SDS011;75526;43.726;4.346;2024-03-06T07:09:35;5.43;;;2.60;;
85160;SDS011;75526;43.726;4.346;2024-03-06T07:12:01;5.30;;;2.60;;
85160;SDS011;75526;43.726;4.346;2024-03-06T07:14:28;4.88;;;2.25;;
85160;SDS011;75526;43.726;4.346;2024-03-06T07:16:54;5.40;;;1.85;;
85160;SDS011;75526;43.726;4.346;2024-03-06T07:19:20;5.15;;;1.70;;
85160;SDS011;75526;43.726;4.346;2024-03-06T07:21:46;4.20;;;1.92;;
85160;SDS011;75526;43.726;4.346;2024-03-06T07:24:12;5.27;;;2.30;;
85160;SDS011;75526;43.726;4.346;2024-03-06T07:26:38;4.68;;;2.13;;
85160;SDS011;75526;43.726;4.346;2024-03-06T07:29:04;5.75;;;2.50;;
85160;SDS011;75526;43.726;4.346;2024-03-06T07:31:38;4.85;;;1.77;;
85160;SDS011;75526;43.726;4.346;2024-03-06T07:34:04;4.22;;;1.45;;
85160;SDS011;75526;43.726;4.346;2024-03-06T07:36:32;4.30;;;1.70;;
85160;SDS011;75526;43.726;4.346;2024-03-06T07:38:59;4.85;;;1.85;;
85160;SDS011;75526;43.726;4.346;2024-03-06T07:41:25;5.60;;;2.30;;
85160;SDS011;75526;43.726;4.346;2024-03-06T07:43:51;6.25;;;3.10;;
85160;SDS011;75526;43.726;4.346;2024-03-06T07:46:17;5.10;;;2.75;;
85160;SDS011;75526;43.726;4.346;2024-03-06T07:48:43;5.27;;;2.17;;
85160;SDS011;75526;43.726;4.346;2024-03-06T07:51:10;5.90;;;2.40;;
85160;SDS011;75526;43.726;4.346;2024-03-06T07:53:36;4.85;;;2.08;;
85160;SDS011;75526;43.726;4.346;2024-03-06T07:56:04;6.13;;;2.00;;
85160;SDS011;75526;43.726;4.346;2024-03-06T07:58:31;5.47;;;2.65;;
85160;SDS011;75526;43.726;4.346;2024-03-06T08:00:57;5.43;;;2.83;;
85160;SDS011;75526;43.726;4.346;2024-03-06T08:03:24;4.50;;;1.90;;
85160;SDS011;75526;43.726;4.346;2024-03-06T08:05:53;3.80;;;1.70;;
85160;SDS011;75526;43.726;4.346;2024-03-06T08:08:19;2.78;;;0.90;;
85160;SDS011;75526;43.726;4.346;2024-03-06T08:10:45;3.72;;;0.90;;
85160;SDS011;75526;43.726;4.346;2024-03-06T08:13:11;4.97;;;0.80;;
85160;SDS011;75526;43.726;4.346;2024-03-06T08:15:38;2.90;;;0.80;;
85160;SDS011;75526;43.726;4.346;2024-03-06T08:18:05;2.60;;;0.90;;
85160;SDS011;75526;43.726;4.346;2024-03-06T08:20:31;3.38;;;1.00;;
85160;SDS011;75526;43.726;4.346;2024-03-06T08:22:57;2.72;;;1.02;;
85160;SDS011;75526;43.726;4.346;2024-03-06T08:25:24;3.83;;;1.17;;
85160;SDS011;75526;43.726;4.346;2024-03-06T08:27:50;4.32;;;1.30;;
85160;SDS011;75526;43.726;4.346;2024-03-06T08:30:16;3.28;;;1.20;;
85160;SDS011;75526;43.726;4.346;2024-03-06T08:32:42;3.65;;;0.88;;
85160;SDS011;75526;43.726;4.346;2024-03-06T08:35:09;2.25;;;0.60;;
85160;SDS011;75526;43.726;4.346;2024-03-06T08:37:36;2.37;;;0.70;;
85160;SDS011;75526;43.726;4.346;2024-03-06T08:40:03;2.10;;;0.60;;
85160;SDS011;75526;43.726;4.346;2024-03-06T08:42:29;2.00;;;0.70;;
85160;SDS011;75526;43.726;4.346;2024-03-06T08:44:55;2.22;;;0.80;;
85160;SDS011;75526;43.726;4.346;2024-03-06T08:47:22;2.40;;;0.70;;
85160;SDS011;75526;43.726;4.346;2024-03-06T08:49:48;2.57;;;0.70;;
85160;SDS011;75526;43.726;4.346;2024-03-06T08:52:14;3.28;;;0.70;;
85160;SDS011;75526;43.726;4.346;2024-03-06T08:54:41;1.98;;;0.70;;
85160;SDS011;75526;43.726;4.346;2024-03-06T08:57:07;1.73;;;0.60;;
85160;SDS011;75526;43.726;4.346;2024-03-06T08:59:34;2.22;;;0.60;;
85160;SDS011;75526;43.726;4.346;2024-03-06T09:02:11;1.80;;;0.60;;
85160;SDS011;75526;43.726;4.346;2024-03-06T09:04:38;2.15;;;0.60;;
85160;SDS011;75526;43.726;4.346;2024-03-06T09:07:04;2.20;;;0.70;;
85160;SDS011;75526;43.726;4.346;2024-03-06T09:09:31;1.98;;;0.70;;
85160;SDS011;75526;43.726;4.346;2024-03-06T09:11:59;2.25;;;0.80;;
85160;SDS011;75526;43.726;4.346;2024-03-06T09:14:25;2.13;;;0.70;;
85160;SDS011;75526;43.726;4.346;2024-03-06T09:16:51;4.55;;;1.50;;
85160;SDS011;75526;43.726;4.346;2024-03-06T09:19:17;2.80;;;0.70;;
85160;SDS011;75526;43.726;4.346;2024-03-06T09:21:43;3.28;;;0.70;;
85160;SDS011;75526;43.726;4.346;2024-03-06T09:24:09;3.63;;;0.90;;
85160;SDS011;75526;43.726;4.346;2024-03-06T09:26:35;2.73;;;0.70;;
85160;SDS011;75526;43.726;4.346;2024-03-06T09:29:02;2.70;;;0.88;;
85160;SDS011;75526;43.726;4.346;2024-03-06T09:31:28;3.83;;;1.40;;
85160;SDS011;75526;43.726;4.346;2024-03-06T09:33:54;2.08;;;0.88;;
85160;SDS011;75526;43.726;4.346;2024-03-06T09:36:20;2.85;;;0.80;;
85160;SDS011;75526;43.726;4.346;2024-03-06T09:38:46;3.00;;;0.83;;
85160;SDS011;75526;43.726;4.346;2024-03-06T09:41:12;1.98;;;0.50;;
85160;SDS011;75526;43.726;4.346;2024-03-06T09:43:38;4.78;;;0.80;;
85160;SDS011;75526;43.726;4.346;2024-03-06T09:46:06;2.33;;;0.65;;
85160;SDS011;75526;43.726;4.346;2024-03-06T09:48:33;1.85;;;0.50;;
85160;SDS011;75526;43.726;4.346;2024-03-06T09:51:02;1.37;;;0.50;;
85160;SDS011;75526;43.726;4.346;2024-03-06T09:53:28;2.00;;;0.50;;
85160;SDS011;75526;43.726;4.346;2024-03-06T09:55:55;3.42;;;0.80;;
85160;SDS011;75526;43.726;4.346;2024-03-06T09:58:23;2.00;;;0.60;;
85160;SDS011;75526;43.726;4.346;2024-03-06T10:00:49;2.45;;;0.70;;
85160;SDS011;75526;43.726;4.346;2024-03-06T10:03:16;2.80;;;0.73;;
85160;SDS011;75526;43.726;4.346;2024-03-06T10:05:42;1.83;;;0.60;;
85160;SDS011;75526;43.726;4.346;2024-03-06T10:08:08;2.60;;;0.68;;
85160;SDS011;75526;43.726;4.346;2024-03-06T10:10:35;2.33;;;0.68;;
85160;SDS011;75526;43.726;4.346;2024-03-06T10:13:02;2.00;;;0.60;;
85160;SDS011;75526;43.726;4.346;2024-03-06T10:15:28;2.63;;;0.97;;
85160;SDS011;75526;43.726;4.346;2024-03-06T10:18:10;1.48;;;0.60;;
85160;SDS011;75526;43.726;4.346;2024-03-06T10:20:37;2.70;;;0.70;;
85160;SDS011;75526;43.726;4.346;2024-03-06T10:23:03;2.30;;;0.60;;
85160;SDS011;75526;43.726;4.346;2024-03-06T10:25:30;2.25;;;0.70;;
85160;SDS011;75526;43.726;4.346;2024-03-06T10:28:09;2.10;;;0.70;;
85160;SDS011;75526;43.726;4.346;2024-03-06T10:30:39;2.50;;;0.80;;
85160;SDS011;75526;43.726;4.346;2024-03-06T10:33:08;2.38;;;0.70;;
85160;SDS011;75526;43.726;4.346;2024-03-06T10:35:35;2.00;;;0.70;;
85160;SDS011;75526;43.726;4.346;2024-03-06T10:38:04;3.05;;;0.73;;
85160;SDS011;75526;43.726;4.346;2024-03-06T10:40:31;1.87;;;0.60;;
85160;SDS011;75526;43.726;4.346;2024-03-06T10:43:00;2.90;;;0.75;;
85160;SDS011;75526;43.726;4.346;2024-03-06T10:45:40;2.95;;;0.82;;
85160;SDS011;75526;43.726;4.346;2024-03-06T10:48:07;3.00;;;0.88;;
85160;SDS011;75526;43.726;4.346;2024-03-06T10:50:37;2.47;;;0.70;;
85160;SDS011;75526;43.726;4.346;2024-03-06T10:53:04;3.23;;;0.77;;
85160;SDS011;75526;43.726;4.346;2024-03-06T10:55:33;3.92;;;1.23;;
85160;SDS011;75526;43.726;4.346;2024-03-06T10:58:00;2.47;;;0.93;;
85160;SDS011;75526;43.726;4.346;2024-03-06T11:00:26;4.15;;;1.25;;
85160;SDS011;75526;43.726;4.346;2024-03-06T11:02:54;4.05;;;1.42;;
85160;SDS011;75526;43.726;4.346;2024-03-06T11:05:20;3.37;;;1.10;;
85160;SDS011;75526;43.726;4.346;2024-03-06T11:07:46;4.43;;;1.40;;
85160;SDS011;75526;43.726;4.346;2024-03-06T11:10:13;3.33;;;1.17;;
85160;SDS011;75526;43.726;4.346;2024-03-06T11:12:41;3.30;;;1.00;;
85160;SDS011;75526;43.726;4.346;2024-03-06T11:15:14;3.13;;;1.20;;
85160;SDS011;75526;43.726;4.346;2024-03-06T11:17:40;2.67;;;0.80;;
85160;SDS011;75526;43.726;4.346;2024-03-06T11:20:13;3.45;;;1.15;;
85160;SDS011;75526;43.726;4.346;2024-03-06T11:28:15;3.35;;;1.02;;
85160;SDS011;75526;43.726;4.346;2024-03-06T11:30:45;3.13;;;0.90;;
85160;SDS011;75526;43.726;4.346;2024-03-06T11:33:15;2.00;;;0.70;;
85160;SDS011;75526;43.726;4.346;2024-03-06T11:35:41;2.17;;;0.70;;
85160;SDS011;75526;43.726;4.346;2024-03-06T11:38:16;2.35;;;0.70;;
85160;SDS011;75526;43.726;4.346;2024-03-06T11:40:48;2.50;;;0.80;;
85160;SDS011;75526;43.726;4.346;2024-03-06T11:43:26;2.90;;;0.70;;
85160;SDS011;75526;43.726;4.346;2024-03-06T11:45:53;2.60;;;0.93;;
85160;SDS011;75526;43.726;4.346;2024-03-06T11:48:19;2.33;;;0.80;;
85160;SDS011;75526;43.726;4.346;2024-03-06T11:50:46;2.72;;;0.70;;
85160;SDS011;75526;43.726;4.346;2024-03-06T11:53:13;2.38;;;0.73;;
85160;SDS011;75526;43.726;4.346;2024-03-06T11:55:40;1.93;;;0.70;;
85160;SDS011;75526;43.726;4.346;2024-03-06T11:58:06;2.45;;;0.95;;
85160;SDS011;75526;43.726;4.346;2024-03-06T12:00:33;2.10;;;0.70;;
85160;SDS011;75526;43.726;4.346;2024-03-06T12:02:59;2.20;;;0.77;;
85160;SDS011;75526;43.726;4.346;2024-03-06T12:05:25;3.13;;;0.90;;
85160;SDS011;75526;43.726;4.346;2024-03-06T12:07:52;2.27;;;0.77;;
85160;SDS011;75526;43.726;4.346;2024-03-06T12:10:19;3.35;;;0.80;;
85160;SDS011;75526;43.726;4.346;2024-03-06T12:12:45;2.40;;;0.60;;
85160;SDS011;75526;43.726;4.346;2024-03-06T12:15:12;1.55;;;0.50;;
85160;SDS011;75526;43.726;4.346;2024-03-06T12:17:42;2.20;;;0.70;;
85160;SDS011;75526;43.726;4.346;2024-03-06T12:20:11;2.60;;;0.70;;
85160;SDS011;75526;43.726;4.346;2024-03-06T12:22:53;2.53;;;0.70;;
85160;SDS011;75526;43.726;4.346;2024-03-06T12:25:24;2.13;;;0.80;;
85160;SDS011;75526;43.726;4.346;2024-03-06T12:27:50;2.03;;;0.73;;
85160;SDS011;75526;43.726;4.346;2024-03-06T12:30:17;2.97;;;0.90;;
85160;SDS011;75526;43.726;4.346;2024-03-06T12:32:44;2.83;;;0.90;;
85160;SDS011;75526;43.726;4.346;2024-03-06T12:35:10;3.17;;;1.00;;
85160;SDS011;75526;43.726;4.346;2024-03-06T12:37:36;2.45;;;1.00;;
85160;SDS011;75526;43.726;4.346;2024-03-06T12:40:02;3.15;;;0.80;;
85160;SDS011;75526;43.726;4.346;2024-03-06T12:42:38;4.28;;;1.85;;
85160;SDS011;75526;43.726;4.346;2024-03-06T12:45:04;2.20;;;0.80;;
85160;SDS011;75526;43.726;4.346;2024-03-06T12:47:32;3.28;;;1.30;;
85160;SDS011;75526;43.726;4.346;2024-03-06T12:49:58;2.15;;;0.80;;
85160;SDS011;75526;43.726;4.346;2024-03-06T12:52:24;2.85;;;0.80;;
85160;SDS011;75526;43.726;4.346;2024-03-06T12:54:50;2.55;;;0.80;;
85160;SDS011;75526;43.726;4.346;2024-03-06T12:57:16;1.60;;;0.60;;
85160;SDS011;75526;43.726;4.346;2024-03-06T12:59:42;1.70;;;0.70;;
85160;SDS011;75526;43.726;4.346;2024-03-06T13:02:08;2.33;;;0.70;;
85160;SDS011;75526;43.726;4.346;2024-03-06T13:04:34;2.95;;;0.82;;
85160;SDS011;75526;43.726;4.346;2024-03-06T13:07:00;3.00;;;1.20;;
85160;SDS011;75526;43.726;4.346;2024-03-06T13:09:27;3.10;;;1.20;;
85160;SDS011;75526;43.726;4.346;2024-03-06T13:11:53;2.20;;;0.90;;
85160;SDS011;75526;43.726;4.346;2024-03-06T13:14:19;2.28;;;0.88;;
85160;SDS011;75526;43.726;4.346;2024-03-06T13:16:45;1.92;;;0.70;;
85160;SDS011;75526;43.726;4.346;2024-03-06T13:19:11;2.80;;;0.90;;
85160;SDS011;75526;43.726;4.346;2024-03-06T13:21:37;2.20;;;0.80;;
85160;SDS011;75526;43.726;4.346;2024-03-06T13:24:04;2.78;;;0.70;;
85160;SDS011;75526;43.726;4.346;2024-03-06T13:26:30;2.40;;;0.80;;
85160;SDS011;75526;43.726;4.346;2024-03-06T13:28:56;2.97;;;1.00;;
85160;SDS011;75526;43.726;4.346;2024-03-06T13:31:22;1.90;;;0.70;;
85160;SDS011;75526;43.726;4.346;2024-03-06T13:33:48;2.83;;;0.70;;
85160;SDS011;75526;43.726;4.346;2024-03-06T13:36:14;2.65;;;0.98;;
85160;SDS011;75526;43.726;4.346;2024-03-06T13:38:40;4.43;;;1.85;;
85160;SDS011;75526;43.726;4.346;2024-03-06T13:41:06;3.22;;;1.00;;
85160;SDS011;75526;43.726;4.346;2024-03-06T13:43:32;3.50;;;1.30;;
85160;SDS011;75526;43.726;4.346;2024-03-06T13:45:58;3.00;;;1.10;;
85160;SDS011;75526;43.726;4.346;2024-03-06T13:48:24;3.78;;;0.93;;
85160;SDS011;75526;43.726;4.346;2024-03-06T13:50:50;2.75;;;1.05;;
85160;SDS011;75526;43.726;4.346;2024-03-06T13:53:16;2.10;;;0.70;;
85160;SDS011;75526;43.726;4.346;2024-03-06T13:55:42;2.33;;;0.80;;
85160;SDS011;75526;43.726;4.346;2024-03-06T13:58:08;2.87;;;1.17;;
85160;SDS011;75526;43.726;4.346;2024-03-06T14:00:34;2.80;;;0.80;;
85160;SDS011;75526;43.726;4.346;2024-03-06T14:03:00;1.85;;;0.70;;
85160;SDS011;75526;43.726;4.346;2024-03-06T14:05:26;2.53;;;0.70;;
85160;SDS011;75526;43.726;4.346;2024-03-06T14:07:53;2.10;;;0.90;;
85160;SDS011;75526;43.726;4.346;2024-03-06T14:10:20;2.97;;;0.80;;
85160;SDS011;75526;43.726;4.346;2024-03-06T14:12:48;3.22;;;0.90;;
85160;SDS011;75526;43.726;4.346;2024-03-06T14:15:18;3.47;;;1.40;;
85160;SDS011;75526;43.726;4.346;2024-03-06T14:17:44;2.40;;;0.80;;
85160;SDS011;75526;43.726;4.346;2024-03-06T14:20:11;2.20;;;0.70;;
85160;SDS011;75526;43.726;4.346;2024-03-06T14:22:37;2.20;;;0.77;;
85160;SDS011;75526;43.726;4.346;2024-03-06T14:25:04;2.28;;;0.75;;
85160;SDS011;75526;43.726;4.346;2024-03-06T14:27:30;2.15;;;0.90;;
85160;SDS011;75526;43.726;4.346;2024-03-06T14:29:56;2.42;;;0.90;;
85160;SDS011;75526;43.726;4.346;2024-03-06T14:32:22;2.67;;;0.80;;
85160;SDS011;75526;43.726;4.346;2024-03-06T14:34:49;2.50;;;0.80;;
85160;SDS011;75526;43.726;4.346;2024-03-06T14:37:15;2.38;;;0.80;;
85160;SDS011;75526;43.726;4.346;2024-03-06T14:39:41;3.50;;;0.70;;
85160;SDS011;75526;43.726;4.346;2024-03-06T14:42:08;2.28;;;0.77;;
85160;SDS011;75526;43.726;4.346;2024-03-06T14:44:34;3.08;;;0.80;;
85160;SDS011;75526;43.726;4.346;2024-03-06T14:47:00;3.30;;;0.73;;
85160;SDS011;75526;43.726;4.346;2024-03-06T14:49:26;2.40;;;0.80;;
85160;SDS011;75526;43.726;4.346;2024-03-06T14:51:53;3.97;;;1.33;;